sensor_id;sensor_type;location;lat;lon;timestamp;P1;durP1;ratioP1;P2;durP2;ratioP2
43042;SDS011;28667;50.758;6.096;2023-02-11T00:00:15;24.08;;;10.15;;
43042;SDS011;28667;50.758;6.096;2023-02-11T00:02:42;30.15;;;12.65;;
43042;SDS011;28667;50.758;6.096;2023-02-11T00:05:07;22.10;;;10.30;;
43042;SDS011;28667;50.758;6.096;2023-02-11T00:07:33;25.15;;;11.38;;
43042;SDS011;28667;50.758;6.096;2023-02-11T00:10:00;28.35;;;11.95;;
43042;SDS011;28667;50.758;6.096;2023-02-11T00:12:30;27.15;;;11.10;;
43042;SDS011;28667;50.758;6.096;2023-02-11T00:14:56;24.05;;;10.73;;
43042;SDS011;28667;50.758;6.096;2023-02-11T00:17:21;30.98;;;11.90;;
43042;SDS011;28667;50.758;6.096;2023-02-11T00:19:50;27.40;;;10.98;;
43042;SDS011;28667;50.758;6.096;2023-02-11T00:22:17;23.35;;;11.13;;
43042;SDS011;28667;50.758;6.096;2023-02-11T00:24:43;26.20;;;11.52;;
43042;SDS011;28667;50.758;6.096;2023-02-11T00:27:09;28.13;;;10.52;;
43042;SDS011;28667;50.758;6.096;2023-02-11T00:29:35;30.90;;;12.48;;
43042;SDS011;28667;50.758;6.096;2023-02-11T00:32:01;31.65;;;11.93;;
43042;SDS011;28667;50.758;6.096;2023-02-11T00:34:29;28.77;;;12.73;;
43042;SDS011;28667;50.758;6.096;2023-02-11T00:36:56;25.42;;;12.15;;
43042;SDS011;28667;50.758;6.096;2023-02-11T00:39:21;30.60;;;13.00;;
43042;SDS011;28667;50.758;6.096;2023-02-11T00:41:47;35.13;;;13.45;;
43042;SDS011;28667;50.758;6.096;2023-02-11T00:44:13;31.00;;;12.95;;
43042;SDS011;28667;50.758;6.096;2023-02-11T00:46:39;32.97;;;13.18;;
43042;SDS011;28667;50.758;6.096;2023-02-11T00:49:04;30.30;;;13.68;;
43042;SDS011;28667;50.758;6.096;2023-02-11T00:51:30;28.67;;;12.65;;
43042;SDS011;28667;50.758;6.096;2023-02-11T00:53:56;33.83;;;12.30;;
43042;SDS011;28667;50.758;6.096;2023-02-11T00:56:21;28.85;;;13.27;;
43042;SDS011;28667;50.758;6.096;2023-02-11T00:58:47;23.70;;;11.07;;
43042;SDS011;28667;50.758;6.096;2023-02-11T01:01:15;25.42;;;10.77;;
43042;SDS011;28667;50.758;6.096;2023-02-11T01:03:41;31.42;;;12.50;;
43042;SDS011;28667;50.758;6.096;2023-02-11T01:06:07;25.63;;;10.68;;
43042;SDS011;28667;50.758;6.096;2023-02-11T01:08:36;29.55;;;11.75;;
43042;SDS011;28667;50.758;6.096;2023-02-11T01:11:04;31.50;;;13.00;;
43042;SDS011;28667;50.758;6.096;2023-02-11T01:13:35;33.88;;;12.73;;
43042;SDS011;28667;50.758;6.096;2023-02-11T01:16:01;30.92;;;12.65;;
43042;SDS011;28667;50.758;6.096;2023-02-11T01:18:28;30.38;;;12.00;;
43042;SDS011;28667;50.758;6.096;2023-02-11T01:20:53;28.60;;;10.95;;
43042;SDS011;28667;50.758;6.096;2023-02-11T01:23:19;30.20;;;11.65;;
43042;SDS011;28667;50.758;6.096;2023-02-11T01:25:45;23.65;;;11.20;;
43042;SDS011;28667;50.758;6.096;2023-02-11T01:28:19;34.40;;;13.35;;
43042;SDS011;28667;50.758;6.096;2023-02-11T01:30:50;30.80;;;12.63;;
43042;SDS011;28667;50.758;6.096;2023-02-11T01:33:17;32.13;;;11.98;;
43042;SDS011;28667;50.758;6.096;2023-02-11T01:35:43;31.88;;;12.88;;
43042;SDS011;28667;50.758;6.096;2023-02-11T01:38:16;24.88;;;12.27;;
43042;SDS011;28667;50.758;6.096;2023-02-11T01:40:45;31.98;;;13.80;;
43042;SDS011;28667;50.758;6.096;2023-02-11T01:43:12;38.50;;;13.32;;
43042;SDS011;28667;50.758;6.096;2023-02-11T01:48:14;27.23;;;12.73;;
43042;SDS011;28667;50.758;6.096;2023-02-11T01:51:08;29.00;;;11.85;;
43042;SDS011;28667;50.758;6.096;2023-02-11T01:53:42;33.45;;;13.27;;
43042;SDS011;28667;50.758;6.096;2023-02-11T01:56:29;31.33;;;13.30;;
43042;SDS011;28667;50.758;6.096;2023-02-11T01:59:16;35.27;;;13.67;;
43042;SDS011;28667;50.758;6.096;2023-02-11T02:01:47;38.35;;;13.50;;
43042;SDS011;28667;50.758;6.096;2023-02-11T02:04:20;26.55;;;11.73;;
43042;SDS011;28667;50.758;6.096;2023-02-11T02:06:54;33.90;;;12.68;;
43042;SDS011;28667;50.758;6.096;2023-02-11T02:09:24;29.75;;;12.68;;
43042;SDS011;28667;50.758;6.096;2023-02-11T02:11:55;35.10;;;13.68;;
43042;SDS011;28667;50.758;6.096;2023-02-11T02:14:20;27.90;;;12.25;;
43042;SDS011;28667;50.758;6.096;2023-02-11T02:16:46;31.00;;;13.30;;
43042;SDS011;28667;50.758;6.096;2023-02-11T02:41:02;25.10;;;11.77;;
43042;SDS011;28667;50.758;6.096;2023-02-11T02:43:32;28.73;;;12.43;;
43042;SDS011;28667;50.758;6.096;2023-02-11T02:46:09;28.25;;;12.50;;
43042;SDS011;28667;50.758;6.096;2023-02-11T02:48:41;22.30;;;9.77;;
43042;SDS011;28667;50.758;6.096;2023-02-11T02:51:10;22.65;;;8.80;;
43042;SDS011;28667;50.758;6.096;2023-02-11T03:05:45;26.65;;;11.43;;
43042;SDS011;28667;50.758;6.096;2023-02-11T03:08:33;24.02;;;10.52;;
43042;SDS011;28667;50.758;6.096;2023-02-11T03:11:07;23.70;;;10.02;;
43042;SDS011;28667;50.758;6.096;2023-02-11T03:13:35;27.35;;;11.20;;
43042;SDS011;28667;50.758;6.096;2023-02-11T03:16:06;29.02;;;10.52;;
43042;SDS011;28667;50.758;6.096;2023-02-11T03:18:35;28.52;;;11.45;;
43042;SDS011;28667;50.758;6.096;2023-02-11T03:21:05;24.65;;;10.60;;
43042;SDS011;28667;50.758;6.096;2023-02-11T03:23:36;28.65;;;12.82;;
43042;SDS011;28667;50.758;6.096;2023-02-11T03:26:35;24.50;;;10.90;;
43042;SDS011;28667;50.758;6.096;2023-02-11T03:29:03;21.98;;;11.00;;
43042;SDS011;28667;50.758;6.096;2023-02-11T03:31:40;26.38;;;11.60;;
43042;SDS011;28667;50.758;6.096;2023-02-11T03:34:30;30.80;;;12.77;;
43042;SDS011;28667;50.758;6.096;2023-02-11T03:39:54;33.72;;;12.18;;
43042;SDS011;28667;50.758;6.096;2023-02-11T03:42:22;28.95;;;12.10;;
43042;SDS011;28667;50.758;6.096;2023-02-11T03:44:52;27.63;;;10.18;;
43042;SDS011;28667;50.758;6.096;2023-02-11T03:47:24;26.10;;;11.35;;
43042;SDS011;28667;50.758;6.096;2023-02-11T03:49:52;27.25;;;11.75;;
43042;SDS011;28667;50.758;6.096;2023-02-11T03:52:19;23.33;;;11.38;;
43042;SDS011;28667;50.758;6.096;2023-02-11T03:54:47;32.38;;;11.85;;
43042;SDS011;28667;50.758;6.096;2023-02-11T03:57:17;34.33;;;12.90;;
43042;SDS011;28667;50.758;6.096;2023-02-11T03:59:53;29.27;;;12.45;;
43042;SDS011;28667;50.758;6.096;2023-02-11T04:02:24;27.90;;;12.20;;
43042;SDS011;28667;50.758;6.096;2023-02-11T04:04:53;31.30;;;12.73;;
43042;SDS011;28667;50.758;6.096;2023-02-11T04:07:19;35.42;;;12.27;;
43042;SDS011;28667;50.758;6.096;2023-02-11T04:09:45;30.60;;;12.15;;
43042;SDS011;28667;50.758;6.096;2023-02-11T04:12:10;30.17;;;11.57;;
43042;SDS011;28667;50.758;6.096;2023-02-11T04:14:36;30.90;;;11.43;;
43042;SDS011;28667;50.758;6.096;2023-02-11T04:17:02;30.00;;;12.60;;
43042;SDS011;28667;50.758;6.096;2023-02-11T04:19:28;36.15;;;12.32;;
43042;SDS011;28667;50.758;6.096;2023-02-11T04:21:54;26.35;;;10.38;;
43042;SDS011;28667;50.758;6.096;2023-02-11T04:24:20;25.25;;;10.73;;
43042;SDS011;28667;50.758;6.096;2023-02-11T04:26:45;35.20;;;12.70;;
43042;SDS011;28667;50.758;6.096;2023-02-11T04:29:11;36.28;;;11.93;;
43042;SDS011;28667;50.758;6.096;2023-02-11T04:31:37;29.75;;;11.30;;
43042;SDS011;28667;50.758;6.096;2023-02-11T04:34:03;30.15;;;11.57;;
43042;SDS011;28667;50.758;6.096;2023-02-11T04:36:28;29.80;;;11.18;;
43042;SDS011;28667;50.758;6.096;2023-02-11T04:38:54;37.78;;;11.73;;
43042;SDS011;28667;50.758;6.096;2023-02-11T04:41:20;31.20;;;12.80;;
43042;SDS011;28667;50.758;6.096;2023-02-11T04:43:45;30.90;;;11.75;;
43042;SDS011;28667;50.758;6.096;2023-02-11T04:46:11;31.65;;;12.48;;
43042;SDS011;28667;50.758;6.096;2023-02-11T04:48:37;33.83;;;12.32;;
43042;SDS011;28667;50.758;6.096;2023-02-11T04:51:02;30.75;;;11.68;;
43042;SDS011;28667;50.758;6.096;2023-02-11T04:53:28;28.00;;;12.05;;
43042;SDS011;28667;50.758;6.096;2023-02-11T04:55:56;25.20;;;11.45;;
43042;SDS011;28667;50.758;6.096;2023-02-11T04:58:27;29.73;;;12.07;;
43042;SDS011;28667;50.758;6.096;2023-02-11T05:00:52;29.58;;;12.50;;
43042;SDS011;28667;50.758;6.096;2023-02-11T05:03:18;26.55;;;11.07;;
43042;SDS011;28667;50.758;6.096;2023-02-11T05:05:44;29.90;;;11.65;;
43042;SDS011;28667;50.758;6.096;2023-02-11T05:08:10;30.30;;;11.05;;
43042;SDS011;28667;50.758;6.096;2023-02-11T05:10:36;28.95;;;11.38;;
43042;SDS011;28667;50.758;6.096;2023-02-11T05:13:03;33.63;;;12.60;;
43042;SDS011;28667;50.758;6.096;2023-02-11T05:15:28;28.30;;;10.85;;
43042;SDS011;28667;50.758;6.096;2023-02-11T05:17:54;25.73;;;11.70;;
43042;SDS011;28667;50.758;6.096;2023-02-11T05:20:20;31.30;;;11.02;;
43042;SDS011;28667;50.758;6.096;2023-02-11T05:22:46;29.58;;;11.40;;
43042;SDS011;28667;50.758;6.096;2023-02-11T05:25:12;24.95;;;11.68;;
43042;SDS011;28667;50.758;6.096;2023-02-11T05:27:38;31.40;;;11.85;;
43042;SDS011;28667;50.758;6.096;2023-02-11T05:30:04;25.63;;;11.15;;
43042;SDS011;28667;50.758;6.096;2023-02-11T05:32:30;28.85;;;10.80;;
43042;SDS011;28667;50.758;6.096;2023-02-11T05:34:56;31.48;;;11.32;;
43042;SDS011;28667;50.758;6.096;2023-02-11T05:37:22;28.38;;;11.68;;
43042;SDS011;28667;50.758;6.096;2023-02-11T05:39:47;31.58;;;11.73;;
43042;SDS011;28667;50.758;6.096;2023-02-11T05:42:13;26.33;;;9.82;;
43042;SDS011;28667;50.758;6.096;2023-02-11T05:44:39;25.02;;;10.77;;
43042;SDS011;28667;50.758;6.096;2023-02-11T05:47:05;26.58;;;10.80;;
43042;SDS011;28667;50.758;6.096;2023-02-11T05:49:33;30.13;;;12.20;;
43042;SDS011;28667;50.758;6.096;2023-02-11T05:51:59;24.20;;;11.07;;
43042;SDS011;28667;50.758;6.096;2023-02-11T05:54:25;27.65;;;11.20;;
43042;SDS011;28667;50.758;6.096;2023-02-11T05:56:51;22.05;;;10.45;;
43042;SDS011;28667;50.758;6.096;2023-02-11T05:59:16;22.45;;;9.93;;
43042;SDS011;28667;50.758;6.096;2023-02-11T06:01:42;24.25;;;10.18;;
43042;SDS011;28667;50.758;6.096;2023-02-11T06:04:08;22.70;;;10.93;;
43042;SDS011;28667;50.758;6.096;2023-02-11T06:06:34;29.33;;;10.38;;
43042;SDS011;28667;50.758;6.096;2023-02-11T06:09:00;26.33;;;9.13;;
43042;SDS011;28667;50.758;6.096;2023-02-11T06:11:25;25.60;;;9.77;;
43042;SDS011;28667;50.758;6.096;2023-02-11T06:13:51;26.73;;;10.48;;
43042;SDS011;28667;50.758;6.096;2023-02-11T06:16:17;23.88;;;9.88;;
43042;SDS011;28667;50.758;6.096;2023-02-11T06:18:43;33.03;;;9.98;;
43042;SDS011;28667;50.758;6.096;2023-02-11T06:21:09;29.52;;;10.27;;
43042;SDS011;28667;50.758;6.096;2023-02-11T06:23:35;29.17;;;10.80;;
43042;SDS011;28667;50.758;6.096;2023-02-11T06:26:02;22.30;;;9.57;;
43042;SDS011;28667;50.758;6.096;2023-02-11T06:28:29;25.70;;;10.55;;
43042;SDS011;28667;50.758;6.096;2023-02-11T06:30:58;24.52;;;9.98;;
43042;SDS011;28667;50.758;6.096;2023-02-11T06:33:30;22.35;;;10.15;;
43042;SDS011;28667;50.758;6.096;2023-02-11T06:35:56;26.08;;;10.23;;
43042;SDS011;28667;50.758;6.096;2023-02-11T06:38:22;25.67;;;10.05;;
43042;SDS011;28667;50.758;6.096;2023-02-11T06:40:48;23.73;;;10.40;;
43042;SDS011;28667;50.758;6.096;2023-02-11T06:43:14;27.15;;;10.02;;
43042;SDS011;28667;50.758;6.096;2023-02-11T06:45:40;22.73;;;9.27;;
43042;SDS011;28667;50.758;6.096;2023-02-11T06:48:07;21.00;;;9.50;;
43042;SDS011;28667;50.758;6.096;2023-02-11T06:50:32;27.50;;;11.23;;
43042;SDS011;28667;50.758;6.096;2023-02-11T06:52:58;28.63;;;9.43;;
43042;SDS011;28667;50.758;6.096;2023-02-11T06:55:24;30.02;;;10.25;;
43042;SDS011;28667;50.758;6.096;2023-02-11T06:57:50;20.52;;;9.68;;
43042;SDS011;28667;50.758;6.096;2023-02-11T07:00:16;23.45;;;10.20;;
43042;SDS011;28667;50.758;6.096;2023-02-11T07:02:42;29.40;;;10.45;;
43042;SDS011;28667;50.758;6.096;2023-02-11T07:05:08;25.38;;;10.25;;
43042;SDS011;28667;50.758;6.096;2023-02-11T07:07:34;20.95;;;10.05;;
43042;SDS011;28667;50.758;6.096;2023-02-11T07:10:00;31.55;;;10.90;;
43042;SDS011;28667;50.758;6.096;2023-02-11T07:12:28;20.63;;;9.63;;
43042;SDS011;28667;50.758;6.096;2023-02-11T07:14:55;24.23;;;10.85;;
43042;SDS011;28667;50.758;6.096;2023-02-11T07:17:21;31.75;;;11.82;;
43042;SDS011;28667;50.758;6.096;2023-02-11T07:19:47;26.55;;;9.93;;
43042;SDS011;28667;50.758;6.096;2023-02-11T07:22:12;24.17;;;9.73;;
43042;SDS011;28667;50.758;6.096;2023-02-11T07:24:38;23.23;;;8.98;;
43042;SDS011;28667;50.758;6.096;2023-02-11T07:27:04;27.90;;;12.23;;
43042;SDS011;28667;50.758;6.096;2023-02-11T07:29:30;23.30;;;10.57;;
43042;SDS011;28667;50.758;6.096;2023-02-11T07:31:56;25.35;;;10.95;;
43042;SDS011;28667;50.758;6.096;2023-02-11T07:34:21;22.65;;;9.75;;
43042;SDS011;28667;50.758;6.096;2023-02-11T07:36:47;28.13;;;9.95;;
43042;SDS011;28667;50.758;6.096;2023-02-11T07:39:13;24.27;;;10.52;;
43042;SDS011;28667;50.758;6.096;2023-02-11T07:41:39;26.00;;;11.52;;
43042;SDS011;28667;50.758;6.096;2023-02-11T07:44:05;21.88;;;10.02;;
43042;SDS011;28667;50.758;6.096;2023-02-11T07:46:31;30.85;;;11.43;;
43042;SDS011;28667;50.758;6.096;2023-02-11T07:48:58;26.02;;;11.50;;
43042;SDS011;28667;50.758;6.096;2023-02-11T07:51:28;22.60;;;10.43;;
43042;SDS011;28667;50.758;6.096;2023-02-11T07:53:55;25.38;;;10.63;;
43042;SDS011;28667;50.758;6.096;2023-02-11T07:56:26;20.55;;;9.38;;
43042;SDS011;28667;50.758;6.096;2023-02-11T07:58:53;22.17;;;8.98;;
43042;SDS011;28667;50.758;6.096;2023-02-11T08:01:24;26.83;;;10.02;;
43042;SDS011;28667;50.758;6.096;2023-02-11T08:03:56;21.20;;;9.55;;
43042;SDS011;28667;50.758;6.096;2023-02-11T08:06:24;23.95;;;9.35;;
43042;SDS011;28667;50.758;6.096;2023-02-11T08:08:52;20.75;;;10.07;;
43042;SDS011;28667;50.758;6.096;2023-02-11T08:11:19;21.00;;;9.50;;
43042;SDS011;28667;50.758;6.096;2023-02-11T08:13:49;21.63;;;9.45;;
43042;SDS011;28667;50.758;6.096;2023-02-11T08:16:26;25.63;;;10.05;;
43042;SDS011;28667;50.758;6.096;2023-02-11T08:18:58;24.85;;;10.25;;
43042;SDS011;28667;50.758;6.096;2023-02-11T08:21:25;24.33;;;10.50;;
43042;SDS011;28667;50.758;6.096;2023-02-11T08:23:54;24.58;;;10.18;;
43042;SDS011;28667;50.758;6.096;2023-02-11T08:26:20;28.05;;;10.90;;
43042;SDS011;28667;50.758;6.096;2023-02-11T08:28:48;23.20;;;10.02;;
43042;SDS011;28667;50.758;6.096;2023-02-11T08:31:17;34.50;;;11.10;;
43042;SDS011;28667;50.758;6.096;2023-02-11T08:33:44;21.77;;;9.50;;
43042;SDS011;28667;50.758;6.096;2023-02-11T08:36:11;23.75;;;10.10;;
43042;SDS011;28667;50.758;6.096;2023-02-11T08:38:39;23.33;;;9.73;;
43042;SDS011;28667;50.758;6.096;2023-02-11T08:41:05;20.50;;;9.82;;
43042;SDS011;28667;50.758;6.096;2023-02-11T08:43:31;20.52;;;9.13;;
43042;SDS011;28667;50.758;6.096;2023-02-11T08:45:57;22.67;;;10.88;;
43042;SDS011;28667;50.758;6.096;2023-02-11T08:48:23;23.38;;;9.25;;
43042;SDS011;28667;50.758;6.096;2023-02-11T08:50:49;25.48;;;10.02;;
43042;SDS011;28667;50.758;6.096;2023-02-11T08:53:15;21.63;;;9.45;;
43042;SDS011;28667;50.758;6.096;2023-02-11T08:55:46;25.45;;;11.00;;
43042;SDS011;28667;50.758;6.096;2023-02-11T08:58:13;25.85;;;9.38;;
43042;SDS011;28667;50.758;6.096;2023-02-11T09:00:39;21.55;;;9.70;;
43042;SDS011;28667;50.758;6.096;2023-02-11T09:03:04;27.70;;;10.55;;
43042;SDS011;28667;50.758;6.096;2023-02-11T09:05:33;23.45;;;8.90;;
43042;SDS011;28667;50.758;6.096;2023-02-11T09:07:58;20.77;;;8.27;;
43042;SDS011;28667;50.758;6.096;2023-02-11T09:10:24;26.30;;;10.43;;
43042;SDS011;28667;50.758;6.096;2023-02-11T09:12:50;23.00;;;10.23;;
43042;SDS011;28667;50.758;6.096;2023-02-11T09:15:16;17.95;;;8.43;;
43042;SDS011;28667;50.758;6.096;2023-02-11T09:17:41;29.02;;;10.93;;
43042;SDS011;28667;50.758;6.096;2023-02-11T09:20:07;26.95;;;10.60;;
43042;SDS011;28667;50.758;6.096;2023-02-11T09:22:33;22.67;;;10.05;;
43042;SDS011;28667;50.758;6.096;2023-02-11T09:24:59;26.83;;;11.13;;
43042;SDS011;28667;50.758;6.096;2023-02-11T09:27:25;22.73;;;9.05;;
43042;SDS011;28667;50.758;6.096;2023-02-11T09:29:50;23.70;;;11.38;;
43042;SDS011;28667;50.758;6.096;2023-02-11T09:32:16;23.25;;;10.27;;
43042;SDS011;28667;50.758;6.096;2023-02-11T09:34:42;21.73;;;8.85;;
43042;SDS011;28667;50.758;6.096;2023-02-11T09:37:08;20.70;;;9.20;;
43042;SDS011;28667;50.758;6.096;2023-02-11T09:39:33;26.23;;;9.95;;
43042;SDS011;28667;50.758;6.096;2023-02-11T09:42:19;24.35;;;9.63;;
43042;SDS011;28667;50.758;6.096;2023-02-11T09:44:50;20.90;;;9.20;;
43042;SDS011;28667;50.758;6.096;2023-02-11T09:50:04;24.70;;;8.85;;
43042;SDS011;28667;50.758;6.096;2023-02-11T09:52:36;15.85;;;8.70;;
43042;SDS011;28667;50.758;6.096;2023-02-11T09:55:22;22.77;;;10.18;;
43042;SDS011;28667;50.758;6.096;2023-02-11T09:58:03;30.33;;;10.73;;
43042;SDS011;28667;50.758;6.096;2023-02-11T10:00:35;24.00;;;9.60;;
43042;SDS011;28667;50.758;6.096;2023-02-11T10:05:53;32.72;;;11.00;;
43042;SDS011;28667;50.758;6.096;2023-02-11T10:08:40;30.98;;;11.32;;
43042;SDS011;28667;50.758;6.096;2023-02-11T10:24:55;23.25;;;9.18;;
43042;SDS011;28667;50.758;6.096;2023-02-11T10:27:29;26.95;;;10.68;;
43042;SDS011;28667;50.758;6.096;2023-02-11T10:30:03;29.65;;;11.05;;
43042;SDS011;28667;50.758;6.096;2023-02-11T10:33:19;25.80;;;9.90;;
43042;SDS011;28667;50.758;6.096;2023-02-11T10:35:28;25.02;;;8.98;;
43042;SDS011;28667;50.758;6.096;2023-02-11T10:37:54;27.02;;;10.70;;
43042;SDS011;28667;50.758;6.096;2023-02-11T10:40:22;24.88;;;9.43;;
43042;SDS011;28667;50.758;6.096;2023-02-11T10:42:51;20.83;;;10.32;;
43042;SDS011;28667;50.758;6.096;2023-02-11T10:45:23;25.00;;;9.88;;
43042;SDS011;28667;50.758;6.096;2023-02-11T10:53:35;40.78;;;10.60;;
43042;SDS011;28667;50.758;6.096;2023-02-11T10:56:01;28.88;;;10.57;;
43042;SDS011;28667;50.758;6.096;2023-02-11T10:58:35;24.50;;;9.82;;
43042;SDS011;28667;50.758;6.096;2023-02-11T11:01:10;30.80;;;11.48;;
43042;SDS011;28667;50.758;6.096;2023-02-11T11:03:47;25.80;;;9.57;;
43042;SDS011;28667;50.758;6.096;2023-02-11T11:06:15;29.73;;;11.48;;
43042;SDS011;28667;50.758;6.096;2023-02-11T11:08:52;27.27;;;11.70;;
43042;SDS011;28667;50.758;6.096;2023-02-11T11:11:19;25.73;;;10.55;;
43042;SDS011;28667;50.758;6.096;2023-02-11T11:16:22;29.20;;;10.80;;
43042;SDS011;28667;50.758;6.096;2023-02-11T11:18:50;30.60;;;10.57;;
43042;SDS011;28667;50.758;6.096;2023-02-11T11:21:25;25.25;;;9.88;;
43042;SDS011;28667;50.758;6.096;2023-02-11T11:24:04;29.33;;;12.18;;
43042;SDS011;28667;50.758;6.096;2023-02-11T11:26:44;38.00;;;12.98;;
43042;SDS011;28667;50.758;6.096;2023-02-11T11:29:35;31.13;;;11.48;;
43042;SDS011;28667;50.758;6.096;2023-02-11T11:32:02;25.35;;;10.30;;
43042;SDS011;28667;50.758;6.096;2023-02-11T11:34:36;31.90;;;11.47;;
43042;SDS011;28667;50.758;6.096;2023-02-11T11:37:12;29.25;;;11.30;;
43042;SDS011;28667;50.758;6.096;2023-02-11T11:42:39;32.53;;;11.77;;
43042;SDS011;28667;50.758;6.096;2023-02-11T11:47:42;31.52;;;10.80;;
43042;SDS011;28667;50.758;6.096;2023-02-11T11:59:09;31.50;;;11.60;;
43042;SDS011;28667;50.758;6.096;2023-02-11T12:23:00;33.28;;;12.90;;
43042;SDS011;28667;50.758;6.096;2023-02-11T12:30:51;30.30;;;11.50;;
43042;SDS011;28667;50.758;6.096;2023-02-11T12:55:56;31.67;;;11.40;;
43042;SDS011;28667;50.758;6.096;2023-02-11T12:58:29;35.08;;;12.07;;
43042;SDS011;28667;50.758;6.096;2023-02-11T13:01:00;30.73;;;10.25;;
43042;SDS011;28667;50.758;6.096;2023-02-11T13:03:46;40.53;;;12.00;;
43042;SDS011;28667;50.758;6.096;2023-02-11T13:06:23;33.17;;;11.45;;
43042;SDS011;28667;50.758;6.096;2023-02-11T13:09:19;33.95;;;12.25;;
43042;SDS011;28667;50.758;6.096;2023-02-11T13:11:53;35.42;;;11.52;;
43042;SDS011;28667;50.758;6.096;2023-02-11T13:14:29;38.13;;;12.07;;
43042;SDS011;28667;50.758;6.096;2023-02-11T13:17:03;31.27;;;10.88;;
43042;SDS011;28667;50.758;6.096;2023-02-11T13:19:49;26.77;;;9.68;;
43042;SDS011;28667;50.758;6.096;2023-02-11T13:22:23;30.02;;;10.98;;
43042;SDS011;28667;50.758;6.096;2023-02-11T13:25:05;26.10;;;10.00;;
43042;SDS011;28667;50.758;6.096;2023-02-11T13:27:53;26.15;;;9.50;;
43042;SDS011;28667;50.758;6.096;2023-02-11T13:30:27;33.53;;;11.47;;
43042;SDS011;28667;50.758;6.096;2023-02-11T13:33:04;36.00;;;11.02;;
43042;SDS011;28667;50.758;6.096;2023-02-11T13:35:44;27.65;;;10.95;;
43042;SDS011;28667;50.758;6.096;2023-02-11T13:40:42;23.75;;;10.45;;
43042;SDS011;28667;50.758;6.096;2023-02-11T13:43:19;26.25;;;10.15;;
43042;SDS011;28667;50.758;6.096;2023-02-11T13:45:48;30.15;;;10.52;;
43042;SDS011;28667;50.758;6.096;2023-02-11T13:48:21;29.55;;;10.75;;
43042;SDS011;28667;50.758;6.096;2023-02-11T13:50:53;29.02;;;11.35;;
43042;SDS011;28667;50.758;6.096;2023-02-11T13:53:21;27.83;;;10.73;;
43042;SDS011;28667;50.758;6.096;2023-02-11T13:55:52;20.58;;;8.65;;
43042;SDS011;28667;50.758;6.096;2023-02-11T13:58:33;20.40;;;8.65;;
43042;SDS011;28667;50.758;6.096;2023-02-11T14:01:04;26.05;;;9.55;;
43042;SDS011;28667;50.758;6.096;2023-02-11T14:03:35;18.73;;;7.97;;
43042;SDS011;28667;50.758;6.096;2023-02-11T14:06:22;20.02;;;8.57;;
43042;SDS011;28667;50.758;6.096;2023-02-11T14:09:32;22.00;;;9.20;;
43042;SDS011;28667;50.758;6.096;2023-02-11T14:17:32;20.65;;;8.15;;
43042;SDS011;28667;50.758;6.096;2023-02-11T14:19:59;23.55;;;9.15;;
43042;SDS011;28667;50.758;6.096;2023-02-11T14:22:49;22.30;;;9.23;;
43042;SDS011;28667;50.758;6.096;2023-02-11T14:25:19;27.50;;;10.35;;
43042;SDS011;28667;50.758;6.096;2023-02-11T14:27:51;23.10;;;8.88;;
43042;SDS011;28667;50.758;6.096;2023-02-11T14:30:31;17.42;;;8.57;;
43042;SDS011;28667;50.758;6.096;2023-02-11T14:43:45;20.67;;;8.88;;
43042;SDS011;28667;50.758;6.096;2023-02-11T14:46:15;16.65;;;7.40;;
43042;SDS011;28667;50.758;6.096;2023-02-11T14:48:44;20.45;;;8.52;;
43042;SDS011;28667;50.758;6.096;2023-02-11T14:51:17;22.15;;;9.05;;
43042;SDS011;28667;50.758;6.096;2023-02-11T14:53:51;18.17;;;7.18;;
43042;SDS011;28667;50.758;6.096;2023-02-11T14:56:24;21.35;;;8.30;;
43042;SDS011;28667;50.758;6.096;2023-02-11T14:58:55;23.38;;;8.48;;
43042;SDS011;28667;50.758;6.096;2023-02-11T15:04:03;20.77;;;8.95;;
43042;SDS011;28667;50.758;6.096;2023-02-11T15:06:31;21.35;;;9.35;;
43042;SDS011;28667;50.758;6.096;2023-02-11T15:09:17;21.42;;;9.32;;
43042;SDS011;28667;50.758;6.096;2023-02-11T15:11:52;22.13;;;8.82;;
43042;SDS011;28667;50.758;6.096;2023-02-11T15:16:57;25.05;;;8.80;;
43042;SDS011;28667;50.758;6.096;2023-02-11T15:22:06;26.60;;;8.77;;
43042;SDS011;28667;50.758;6.096;2023-02-11T15:24:42;19.65;;;9.00;;
43042;SDS011;28667;50.758;6.096;2023-02-11T15:29:41;21.15;;;9.38;;
43042;SDS011;28667;50.758;6.096;2023-02-11T15:34:41;20.90;;;9.50;;
43042;SDS011;28667;50.758;6.096;2023-02-11T15:37:10;27.00;;;10.10;;
43042;SDS011;28667;50.758;6.096;2023-02-11T15:39:39;20.42;;;8.45;;
43042;SDS011;28667;50.758;6.096;2023-02-11T15:44:44;20.23;;;8.65;;
43042;SDS011;28667;50.758;6.096;2023-02-11T15:47:11;20.15;;;9.27;;
43042;SDS011;28667;50.758;6.096;2023-02-11T15:49:44;23.00;;;9.57;;
43042;SDS011;28667;50.758;6.096;2023-02-11T15:52:11;23.00;;;9.38;;
43042;SDS011;28667;50.758;6.096;2023-02-11T15:54:38;24.77;;;9.75;;
43042;SDS011;28667;50.758;6.096;2023-02-11T15:57:09;25.38;;;10.27;;
43042;SDS011;28667;50.758;6.096;2023-02-11T15:59:39;24.27;;;9.38;;
43042;SDS011;28667;50.758;6.096;2023-02-11T16:02:18;21.83;;;9.68;;
43042;SDS011;28667;50.758;6.096;2023-02-11T16:04:58;24.38;;;10.93;;
43042;SDS011;28667;50.758;6.096;2023-02-11T16:07:44;23.67;;;10.05;;
43042;SDS011;28667;50.758;6.096;2023-02-11T16:15:41;20.10;;;9.85;;
43042;SDS011;28667;50.758;6.096;2023-02-11T16:18:57;27.50;;;10.32;;
43042;SDS011;28667;50.758;6.096;2023-02-11T16:21:15;22.15;;;9.77;;
43042;SDS011;28667;50.758;6.096;2023-02-11T16:23:53;27.40;;;9.55;;
43042;SDS011;28667;50.758;6.096;2023-02-11T16:26:31;27.17;;;10.20;;
43042;SDS011;28667;50.758;6.096;2023-02-11T16:29:04;29.50;;;10.77;;
43042;SDS011;28667;50.758;6.096;2023-02-11T16:31:33;28.73;;;10.73;;
43042;SDS011;28667;50.758;6.096;2023-02-11T16:34:01;32.63;;;12.13;;
43042;SDS011;28667;50.758;6.096;2023-02-11T16:36:30;26.75;;;11.13;;
43042;SDS011;28667;50.758;6.096;2023-02-11T16:38:55;27.33;;;11.55;;
43042;SDS011;28667;50.758;6.096;2023-02-11T16:41:21;28.30;;;11.05;;
43042;SDS011;28667;50.758;6.096;2023-02-11T16:43:47;29.80;;;11.20;;
43042;SDS011;28667;50.758;6.096;2023-02-11T16:46:15;29.98;;;10.48;;
43042;SDS011;28667;50.758;6.096;2023-02-11T16:48:41;27.77;;;10.85;;
43042;SDS011;28667;50.758;6.096;2023-02-11T16:51:07;24.27;;;11.25;;
43042;SDS011;28667;50.758;6.096;2023-02-11T16:53:35;25.20;;;9.95;;
43042;SDS011;28667;50.758;6.096;2023-02-11T16:56:01;27.35;;;10.98;;
43042;SDS011;28667;50.758;6.096;2023-02-11T16:58:27;24.90;;;11.23;;
43042;SDS011;28667;50.758;6.096;2023-02-11T17:00:53;27.83;;;12.45;;
43042;SDS011;28667;50.758;6.096;2023-02-11T17:03:22;28.23;;;11.45;;
43042;SDS011;28667;50.758;6.096;2023-02-11T17:05:50;29.55;;;10.85;;
43042;SDS011;28667;50.758;6.096;2023-02-11T17:08:17;24.98;;;10.27;;
43042;SDS011;28667;50.758;6.096;2023-02-11T17:10:43;21.58;;;9.18;;
43042;SDS011;28667;50.758;6.096;2023-02-11T17:13:11;32.08;;;11.52;;
43042;SDS011;28667;50.758;6.096;2023-02-11T17:15:37;29.55;;;12.10;;
43042;SDS011;28667;50.758;6.096;2023-02-11T17:18:02;27.10;;;10.80;;
43042;SDS011;28667;50.758;6.096;2023-02-11T17:20:28;23.48;;;9.90;;
43042;SDS011;28667;50.758;6.096;2023-02-11T17:22:56;26.90;;;11.38;;
43042;SDS011;28667;50.758;6.096;2023-02-11T17:25:22;36.38;;;11.90;;
43042;SDS011;28667;50.758;6.096;2023-02-11T17:27:48;33.83;;;11.00;;
43042;SDS011;28667;50.758;6.096;2023-02-11T17:30:14;29.52;;;12.27;;